sensor_id;sensor_type;location;lat;lon;timestamp;P1;durP1;ratioP1;P2;durP2;ratioP2
58553;SDS011;48119;53.218;6.576;2023-04-24T00:01:47;2.13;;;1.73;;
58553;SDS011;48119;53.218;6.576;2023-04-24T00:04:13;3.83;;;2.17;;
58553;SDS011;48119;53.218;6.576;2023-04-24T00:06:41;4.60;;;2.50;;
58553;SDS011;48119;53.218;6.576;2023-04-24T00:09:08;4.60;;;3.53;;
58553;SDS011;48119;53.218;6.576;2023-04-24T00:11:37;7.70;;;5.90;;
58553;SDS011;48119;53.218;6.576;2023-04-24T00:14:03;8.13;;;6.72;;
58553;SDS011;48119;53.218;6.576;2023-04-24T00:16:29;7.15;;;6.03;;
58553;SDS011;48119;53.218;6.576;2023-04-24T00:18:55;7.18;;;5.22;;
58553;SDS011;48119;53.218;6.576;2023-04-24T00:21:20;7.00;;;4.95;;
58553;SDS011;48119;53.218;6.576;2023-04-24T00:23:47;8.38;;;5.60;;
58553;SDS011;48119;53.218;6.576;2023-04-24T00:26:13;5.20;;;4.35;;
58553;SDS011;48119;53.218;6.576;2023-04-24T00:28:39;5.22;;;3.97;;
58553;SDS011;48119;53.218;6.576;2023-04-24T00:31:04;4.57;;;3.40;;
58553;SDS011;48119;53.218;6.576;2023-04-24T00:33:30;3.63;;;2.70;;
58553;SDS011;48119;53.218;6.576;2023-04-24T00:35:56;3.88;;;2.28;;
58553;SDS011;48119;53.218;6.576;2023-04-24T00:38:22;3.95;;;2.72;;
58553;SDS011;48119;53.218;6.576;2023-04-24T00:40:51;3.15;;;2.25;;
58553;SDS011;48119;53.218;6.576;2023-04-24T00:43:16;2.88;;;1.38;;
58553;SDS011;48119;53.218;6.576;2023-04-24T00:45:42;2.05;;;1.38;;
58553;SDS011;48119;53.218;6.576;2023-04-24T00:48:08;2.63;;;1.20;;
58553;SDS011;48119;53.218;6.576;2023-04-24T00:50:35;0.85;;;0.80;;
58553;SDS011;48119;53.218;6.576;2023-04-24T00:53:01;1.67;;;1.00;;
58553;SDS011;48119;53.218;6.576;2023-04-24T00:55:27;1.55;;;0.90;;
58553;SDS011;48119;53.218;6.576;2023-04-24T00:57:52;2.05;;;0.90;;
58553;SDS011;48119;53.218;6.576;2023-04-24T01:00:18;1.20;;;0.90;;
58553;SDS011;48119;53.218;6.576;2023-04-24T01:02:44;1.60;;;0.88;;
58553;SDS011;48119;53.218;6.576;2023-04-24T01:05:14;1.17;;;0.77;;
58553;SDS011;48119;53.218;6.576;2023-04-24T01:07:43;1.10;;;1.00;;
58553;SDS011;48119;53.218;6.576;2023-04-24T01:10:11;1.50;;;0.90;;
58553;SDS011;48119;53.218;6.576;2023-04-24T01:12:38;1.15;;;0.95;;
58553;SDS011;48119;53.218;6.576;2023-04-24T01:15:04;0.55;;;0.52;;
58553;SDS011;48119;53.218;6.576;2023-04-24T01:17:31;1.02;;;0.60;;
58553;SDS011;48119;53.218;6.576;2023-04-24T01:19:58;1.38;;;0.80;;
58553;SDS011;48119;53.218;6.576;2023-04-24T01:22:25;1.13;;;0.90;;
58553;SDS011;48119;53.218;6.576;2023-04-24T01:24:51;2.05;;;1.35;;
58553;SDS011;48119;53.218;6.576;2023-04-24T01:27:18;1.10;;;0.77;;
58553;SDS011;48119;53.218;6.576;2023-04-24T01:29:45;1.35;;;0.75;;
58553;SDS011;48119;53.218;6.576;2023-04-24T01:32:12;1.23;;;0.85;;
58553;SDS011;48119;53.218;6.576;2023-04-24T01:34:39;0.50;;;0.50;;
58553;SDS011;48119;53.218;6.576;2023-04-24T01:37:05;1.02;;;0.80;;
58553;SDS011;48119;53.218;6.576;2023-04-24T01:39:31;0.63;;;0.60;;
58553;SDS011;48119;53.218;6.576;2023-04-24T01:41:58;1.58;;;0.80;;
58553;SDS011;48119;53.218;6.576;2023-04-24T01:44:26;1.33;;;0.68;;
58553;SDS011;48119;53.218;6.576;2023-04-24T01:46:52;0.68;;;0.63;;
58553;SDS011;48119;53.218;6.576;2023-04-24T01:49:20;1.50;;;0.77;;
58553;SDS011;48119;53.218;6.576;2023-04-24T01:51:46;1.48;;;0.90;;
58553;SDS011;48119;53.218;6.576;2023-04-24T01:54:12;1.35;;;0.82;;
58553;SDS011;48119;53.218;6.576;2023-04-24T01:56:39;1.02;;;0.77;;
58553;SDS011;48119;53.218;6.576;2023-04-24T01:59:10;2.08;;;1.00;;
58553;SDS011;48119;53.218;6.576;2023-04-24T02:01:37;1.75;;;1.00;;
58553;SDS011;48119;53.218;6.576;2023-04-24T02:04:04;0.70;;;0.70;;
58553;SDS011;48119;53.218;6.576;2023-04-24T02:06:30;1.27;;;1.17;;
58553;SDS011;48119;53.218;6.576;2023-04-24T02:08:59;0.90;;;0.90;;
58553;SDS011;48119;53.218;6.576;2023-04-24T02:11:26;1.58;;;1.08;;
58553;SDS011;48119;53.218;6.576;2023-04-24T02:13:52;1.98;;;1.20;;
58553;SDS011;48119;53.218;6.576;2023-04-24T02:16:18;1.73;;;1.10;;
58553;SDS011;48119;53.218;6.576;2023-04-24T02:18:44;2.55;;;1.00;;
58553;SDS011;48119;53.218;6.576;2023-04-24T02:21:10;1.30;;;1.20;;
58553;SDS011;48119;53.218;6.576;2023-04-24T02:23:36;1.42;;;1.33;;
58553;SDS011;48119;53.218;6.576;2023-04-24T02:26:01;1.40;;;1.30;;
58553;SDS011;48119;53.218;6.576;2023-04-24T02:28:27;1.48;;;1.38;;
58553;SDS011;48119;53.218;6.576;2023-04-24T02:30:53;2.10;;;1.52;;
58553;SDS011;48119;53.218;6.576;2023-04-24T02:33:18;1.30;;;1.20;;
58553;SDS011;48119;53.218;6.576;2023-04-24T02:35:44;2.85;;;1.85;;
58553;SDS011;48119;53.218;6.576;2023-04-24T02:38:10;1.90;;;1.80;;
58553;SDS011;48119;53.218;6.576;2023-04-24T02:40:38;1.50;;;1.40;;
58553;SDS011;48119;53.218;6.576;2023-04-24T02:43:04;2.10;;;1.90;;
58553;SDS011;48119;53.218;6.576;2023-04-24T02:45:30;1.77;;;1.60;;
58553;SDS011;48119;53.218;6.576;2023-04-24T02:47:56;2.15;;;1.88;;
58553;SDS011;48119;53.218;6.576;2023-04-24T02:50:21;2.00;;;1.90;;
58553;SDS011;48119;53.218;6.576;2023-04-24T02:52:47;3.15;;;2.25;;
58553;SDS011;48119;53.218;6.576;2023-04-24T02:55:13;2.67;;;2.15;;
58553;SDS011;48119;53.218;6.576;2023-04-24T02:57:38;5.07;;;2.30;;
58553;SDS011;48119;53.218;6.576;2023-04-24T03:00:04;2.50;;;2.30;;
58553;SDS011;48119;53.218;6.576;2023-04-24T03:02:32;2.40;;;2.20;;
58553;SDS011;48119;53.218;6.576;2023-04-24T03:04:58;2.75;;;2.28;;
58553;SDS011;48119;53.218;6.576;2023-04-24T03:07:24;3.65;;;2.38;;
58553;SDS011;48119;53.218;6.576;2023-04-24T03:09:50;2.85;;;2.55;;
58553;SDS011;48119;53.218;6.576;2023-04-24T03:12:16;2.85;;;2.60;;
58553;SDS011;48119;53.218;6.576;2023-04-24T03:14:43;2.90;;;2.60;;
58553;SDS011;48119;53.218;6.576;2023-04-24T03:17:09;3.58;;;3.13;;
58553;SDS011;48119;53.218;6.576;2023-04-24T03:19:34;4.03;;;2.38;;
58553;SDS011;48119;53.218;6.576;2023-04-24T03:22:01;3.38;;;3.08;;
58553;SDS011;48119;53.218;6.576;2023-04-24T03:24:28;3.03;;;2.72;;
58553;SDS011;48119;53.218;6.576;2023-04-24T03:26:53;3.78;;;3.30;;
58553;SDS011;48119;53.218;6.576;2023-04-24T03:29:21;2.60;;;2.40;;
58553;SDS011;48119;53.218;6.576;2023-04-24T03:31:46;3.33;;;3.03;;
58553;SDS011;48119;53.218;6.576;2023-04-24T03:34:12;3.78;;;3.47;;
58553;SDS011;48119;53.218;6.576;2023-04-24T03:36:38;4.05;;;3.35;;
58553;SDS011;48119;53.218;6.576;2023-04-24T03:39:03;3.55;;;3.22;;
58553;SDS011;48119;53.218;6.576;2023-04-24T03:41:29;4.05;;;3.35;;
58553;SDS011;48119;53.218;6.576;2023-04-24T03:43:55;4.38;;;3.97;;
58553;SDS011;48119;53.218;6.576;2023-04-24T03:46:21;4.93;;;4.43;;
58553;SDS011;48119;53.218;6.576;2023-04-24T03:48:47;6.50;;;4.10;;
58553;SDS011;48119;53.218;6.576;2023-04-24T03:51:12;6.28;;;4.80;;
58553;SDS011;48119;53.218;6.576;2023-04-24T03:53:38;6.00;;;4.95;;
58553;SDS011;48119;53.218;6.576;2023-04-24T03:56:04;5.72;;;5.03;;
58553;SDS011;48119;53.218;6.576;2023-04-24T03:58:30;5.95;;;5.43;;
58553;SDS011;48119;53.218;6.576;2023-04-24T04:00:56;5.05;;;4.55;;
58553;SDS011;48119;53.218;6.576;2023-04-24T04:03:23;6.00;;;5.40;;
58553;SDS011;48119;53.218;6.576;2023-04-24T04:05:50;6.82;;;4.95;;
58553;SDS011;48119;53.218;6.576;2023-04-24T04:08:16;6.32;;;4.97;;
58553;SDS011;48119;53.218;6.576;2023-04-24T04:10:42;5.95;;;5.35;;
58553;SDS011;48119;53.218;6.576;2023-04-24T04:13:07;6.45;;;5.13;;
58553;SDS011;48119;53.218;6.576;2023-04-24T04:15:36;5.80;;;5.20;;
58553;SDS011;48119;53.218;6.576;2023-04-24T04:18:01;6.88;;;6.15;;
58553;SDS011;48119;53.218;6.576;2023-04-24T04:20:27;5.97;;;5.10;;
58553;SDS011;48119;53.218;6.576;2023-04-24T04:22:53;7.72;;;5.35;;
58553;SDS011;48119;53.218;6.576;2023-04-24T04:25:19;9.70;;;5.15;;
58553;SDS011;48119;53.218;6.576;2023-04-24T04:27:45;4.50;;;4.10;;
58553;SDS011;48119;53.218;6.576;2023-04-24T04:30:13;5.13;;;4.30;;
58553;SDS011;48119;53.218;6.576;2023-04-24T04:32:41;5.53;;;4.43;;
58553;SDS011;48119;53.218;6.576;2023-04-24T04:35:07;4.65;;;4.18;;
58553;SDS011;48119;53.218;6.576;2023-04-24T04:37:33;4.25;;;3.85;;
58553;SDS011;48119;53.218;6.576;2023-04-24T04:39:59;5.38;;;3.83;;
58553;SDS011;48119;53.218;6.576;2023-04-24T04:42:25;4.30;;;3.90;;
58553;SDS011;48119;53.218;6.576;2023-04-24T04:44:52;4.15;;;3.63;;
58553;SDS011;48119;53.218;6.576;2023-04-24T04:47:19;3.60;;;3.22;;
58553;SDS011;48119;53.218;6.576;2023-04-24T04:49:50;3.20;;;2.85;;
58553;SDS011;48119;53.218;6.576;2023-04-24T04:52:17;3.30;;;3.00;;
58553;SDS011;48119;53.218;6.576;2023-04-24T04:54:43;4.35;;;3.50;;
58553;SDS011;48119;53.218;6.576;2023-04-24T04:57:09;3.75;;;3.45;;
58553;SDS011;48119;53.218;6.576;2023-04-24T04:59:35;3.42;;;2.95;;
58553;SDS011;48119;53.218;6.576;2023-04-24T05:02:02;2.85;;;2.50;;
58553;SDS011;48119;53.218;6.576;2023-04-24T05:04:28;3.35;;;2.92;;
58553;SDS011;48119;53.218;6.576;2023-04-24T05:06:53;3.10;;;2.70;;
58553;SDS011;48119;53.218;6.576;2023-04-24T05:09:19;4.30;;;3.08;;
58553;SDS011;48119;53.218;6.576;2023-04-24T05:11:48;3.60;;;2.80;;
58553;SDS011;48119;53.218;6.576;2023-04-24T05:14:13;2.47;;;2.10;;
58553;SDS011;48119;53.218;6.576;2023-04-24T05:16:39;2.92;;;1.77;;
58553;SDS011;48119;53.218;6.576;2023-04-24T05:19:05;2.35;;;1.90;;
58553;SDS011;48119;53.218;6.576;2023-04-24T05:21:31;2.30;;;1.85;;
58553;SDS011;48119;53.218;6.576;2023-04-24T05:23:57;1.85;;;1.63;;
58553;SDS011;48119;53.218;6.576;2023-04-24T05:26:23;2.92;;;2.00;;
58553;SDS011;48119;53.218;6.576;2023-04-24T05:28:49;2.13;;;1.92;;
58553;SDS011;48119;53.218;6.576;2023-04-24T05:31:15;2.65;;;1.90;;
58553;SDS011;48119;53.218;6.576;2023-04-24T05:33:42;3.83;;;2.55;;
58553;SDS011;48119;53.218;6.576;2023-04-24T05:36:08;4.55;;;3.15;;
58553;SDS011;48119;53.218;6.576;2023-04-24T05:38:34;3.35;;;2.40;;
58553;SDS011;48119;53.218;6.576;2023-04-24T05:40:59;2.70;;;1.85;;
58553;SDS011;48119;53.218;6.576;2023-04-24T05:43:25;3.50;;;2.35;;
58553;SDS011;48119;53.218;6.576;2023-04-24T05:45:51;2.72;;;1.75;;
58553;SDS011;48119;53.218;6.576;2023-04-24T05:48:18;3.97;;;2.17;;
58553;SDS011;48119;53.218;6.576;2023-04-24T05:50:55;3.65;;;2.20;;
58553;SDS011;48119;53.218;6.576;2023-04-24T05:53:21;2.63;;;1.88;;
58553;SDS011;48119;53.218;6.576;2023-04-24T05:55:47;2.38;;;1.80;;
58553;SDS011;48119;53.218;6.576;2023-04-24T05:58:12;2.80;;;1.38;;
58553;SDS011;48119;53.218;6.576;2023-04-24T06:00:39;3.90;;;1.50;;
58553;SDS011;48119;53.218;6.576;2023-04-24T06:03:07;3.65;;;1.65;;
58553;SDS011;48119;53.218;6.576;2023-04-24T06:05:33;2.33;;;1.77;;
58553;SDS011;48119;53.218;6.576;2023-04-24T06:08:00;4.22;;;2.00;;
58553;SDS011;48119;53.218;6.576;2023-04-24T06:10:25;2.45;;;1.73;;
58553;SDS011;48119;53.218;6.576;2023-04-24T06:12:52;3.38;;;2.83;;
58553;SDS011;48119;53.218;6.576;2023-04-24T06:15:21;3.05;;;2.35;;
58553;SDS011;48119;53.218;6.576;2023-04-24T06:17:47;5.25;;;2.10;;
58553;SDS011;48119;53.218;6.576;2023-04-24T06:20:13;2.90;;;2.25;;
58553;SDS011;48119;53.218;6.576;2023-04-24T06:22:38;3.33;;;2.55;;
58553;SDS011;48119;53.218;6.576;2023-04-24T06:25:05;5.65;;;2.83;;
58553;SDS011;48119;53.218;6.576;2023-04-24T06:27:32;10.48;;;3.15;;
58553;SDS011;48119;53.218;6.576;2023-04-24T06:29:58;3.00;;;2.70;;
58553;SDS011;48119;53.218;6.576;2023-04-24T06:32:23;4.13;;;2.92;;
58553;SDS011;48119;53.218;6.576;2023-04-24T06:34:52;4.00;;;3.22;;
58553;SDS011;48119;53.218;6.576;2023-04-24T06:37:18;5.03;;;3.30;;
58553;SDS011;48119;53.218;6.576;2023-04-24T06:39:47;4.05;;;2.97;;
58553;SDS011;48119;53.218;6.576;2023-04-24T06:42:13;4.93;;;2.83;;
58553;SDS011;48119;53.218;6.576;2023-04-24T06:44:39;2.72;;;2.25;;
58553;SDS011;48119;53.218;6.576;2023-04-24T06:47:08;5.68;;;3.05;;
58553;SDS011;48119;53.218;6.576;2023-04-24T06:49:38;4.70;;;2.88;;
58553;SDS011;48119;53.218;6.576;2023-04-24T06:52:05;8.02;;;3.05;;
58553;SDS011;48119;53.218;6.576;2023-04-24T06:54:31;4.95;;;3.15;;
58553;SDS011;48119;53.218;6.576;2023-04-24T06:56:58;6.13;;;2.83;;
58553;SDS011;48119;53.218;6.576;2023-04-24T06:59:25;3.92;;;2.65;;
58553;SDS011;48119;53.218;6.576;2023-04-24T07:01:52;4.97;;;2.00;;
58553;SDS011;48119;53.218;6.576;2023-04-24T07:04:18;2.58;;;1.65;;
58553;SDS011;48119;53.218;6.576;2023-04-24T07:06:47;3.55;;;1.77;;
58553;SDS011;48119;53.218;6.576;2023-04-24T07:09:14;4.40;;;1.58;;
58553;SDS011;48119;53.218;6.576;2023-04-24T07:11:41;2.97;;;1.25;;
58553;SDS011;48119;53.218;6.576;2023-04-24T07:14:07;5.20;;;1.80;;
58553;SDS011;48119;53.218;6.576;2023-04-24T07:16:33;2.08;;;1.48;;
58553;SDS011;48119;53.218;6.576;2023-04-24T07:18:59;2.33;;;1.20;;
58553;SDS011;48119;53.218;6.576;2023-04-24T07:21:25;2.38;;;1.20;;
58553;SDS011;48119;53.218;6.576;2023-04-24T07:23:52;3.20;;;1.48;;
58553;SDS011;48119;53.218;6.576;2023-04-24T07:26:18;3.00;;;1.10;;
58553;SDS011;48119;53.218;6.576;2023-04-24T07:28:48;3.95;;;1.25;;
58553;SDS011;48119;53.218;6.576;2023-04-24T07:31:14;4.30;;;1.10;;
58553;SDS011;48119;53.218;6.576;2023-04-24T07:33:40;3.08;;;1.05;;
58553;SDS011;48119;53.218;6.576;2023-04-24T07:36:06;3.35;;;1.05;;
58553;SDS011;48119;53.218;6.576;2023-04-24T07:38:32;3.25;;;1.50;;
58553;SDS011;48119;53.218;6.576;2023-04-24T07:40:57;3.25;;;1.60;;
58553;SDS011;48119;53.218;6.576;2023-04-24T07:43:23;3.47;;;1.85;;
58553;SDS011;48119;53.218;6.576;2023-04-24T07:45:49;4.70;;;1.75;;
58553;SDS011;48119;53.218;6.576;2023-04-24T07:48:18;4.97;;;1.70;;
58553;SDS011;48119;53.218;6.576;2023-04-24T07:50:46;3.20;;;1.85;;
58553;SDS011;48119;53.218;6.576;2023-04-24T07:53:12;3.00;;;1.80;;
58553;SDS011;48119;53.218;6.576;2023-04-24T07:55:37;4.82;;;2.03;;
58553;SDS011;48119;53.218;6.576;2023-04-24T07:58:03;5.78;;;1.88;;
58553;SDS011;48119;53.218;6.576;2023-04-24T08:00:29;5.63;;;2.40;;
58553;SDS011;48119;53.218;6.576;2023-04-24T08:02:55;4.90;;;2.75;;
58553;SDS011;48119;53.218;6.576;2023-04-24T08:05:21;3.78;;;2.72;;
58553;SDS011;48119;53.218;6.576;2023-04-24T08:07:46;6.63;;;3.65;;
58553;SDS011;48119;53.218;6.576;2023-04-24T08:10:15;7.50;;;4.13;;
58553;SDS011;48119;53.218;6.576;2023-04-24T08:12:41;9.13;;;4.25;;
58553;SDS011;48119;53.218;6.576;2023-04-24T08:15:07;3.72;;;2.13;;
58553;SDS011;48119;53.218;6.576;2023-04-24T08:17:36;11.70;;;6.13;;
58553;SDS011;48119;53.218;6.576;2023-04-24T08:20:05;14.00;;;8.38;;
58553;SDS011;48119;53.218;6.576;2023-04-24T08:22:35;11.48;;;8.10;;
58553;SDS011;48119;53.218;6.576;2023-04-24T08:25:01;16.00;;;6.80;;
58553;SDS011;48119;53.218;6.576;2023-04-24T08:27:27;14.40;;;7.65;;
58553;SDS011;48119;53.218;6.576;2023-04-24T08:29:53;14.27;;;7.38;;
58553;SDS011;48119;53.218;6.576;2023-04-24T08:32:19;14.38;;;8.40;;
58553;SDS011;48119;53.218;6.576;2023-04-24T08:34:45;17.13;;;10.70;;
58553;SDS011;48119;53.218;6.576;2023-04-24T08:37:11;16.13;;;10.23;;
58553;SDS011;48119;53.218;6.576;2023-04-24T08:39:37;12.10;;;8.48;;
58553;SDS011;48119;53.218;6.576;2023-04-24T08:42:04;17.45;;;9.35;;
58553;SDS011;48119;53.218;6.576;2023-04-24T08:44:33;15.65;;;8.85;;
58553;SDS011;48119;53.218;6.576;2023-04-24T08:47:03;16.60;;;9.18;;
58553;SDS011;48119;53.218;6.576;2023-04-24T08:49:30;14.57;;;8.70;;
58553;SDS011;48119;53.218;6.576;2023-04-24T08:51:56;12.05;;;7.68;;
58553;SDS011;48119;53.218;6.576;2023-04-24T08:54:23;16.13;;;6.97;;
58553;SDS011;48119;53.218;6.576;2023-04-24T08:56:50;16.45;;;8.23;;
58553;SDS011;48119;53.218;6.576;2023-04-24T08:59:18;11.68;;;6.60;;
58553;SDS011;48119;53.218;6.576;2023-04-24T09:01:46;11.02;;;7.55;;
58553;SDS011;48119;53.218;6.576;2023-04-24T09:04:13;20.35;;;7.28;;
58553;SDS011;48119;53.218;6.576;2023-04-24T09:06:41;10.88;;;6.55;;
58553;SDS011;48119;53.218;6.576;2023-04-24T09:09:07;15.10;;;6.70;;
58553;SDS011;48119;53.218;6.576;2023-04-24T09:11:34;13.93;;;7.43;;
58553;SDS011;48119;53.218;6.576;2023-04-24T09:14:02;11.55;;;7.70;;
58553;SDS011;48119;53.218;6.576;2023-04-24T09:16:29;10.60;;;8.35;;
58553;SDS011;48119;53.218;6.576;2023-04-24T09:18:58;12.75;;;8.02;;
58553;SDS011;48119;53.218;6.576;2023-04-24T09:21:30;10.55;;;7.43;;
58553;SDS011;48119;53.218;6.576;2023-04-24T09:24:01;13.95;;;9.32;;
58553;SDS011;48119;53.218;6.576;2023-04-24T09:26:29;13.15;;;8.30;;
58553;SDS011;48119;53.218;6.576;2023-04-24T09:28:59;12.95;;;7.60;;
58553;SDS011;48119;53.218;6.576;2023-04-24T09:31:26;9.18;;;5.85;;
58553;SDS011;48119;53.218;6.576;2023-04-24T09:36:41;9.15;;;5.20;;
58553;SDS011;48119;53.218;6.576;2023-04-24T09:39:09;8.15;;;4.85;;
58553;SDS011;48119;53.218;6.576;2023-04-24T09:44:12;10.05;;;5.22;;
58553;SDS011;48119;53.218;6.576;2023-04-24T09:46:52;13.32;;;5.78;;
58553;SDS011;48119;53.218;6.576;2023-04-24T09:49:22;11.23;;;4.78;;
58553;SDS011;48119;53.218;6.576;2023-04-24T09:51:52;12.45;;;5.57;;
58553;SDS011;48119;53.218;6.576;2023-04-24T09:56:54;10.63;;;4.57;;
58553;SDS011;48119;53.218;6.576;2023-04-24T09:59:21;14.35;;;4.97;;
58553;SDS011;48119;53.218;6.576;2023-04-24T10:01:47;7.88;;;4.70;;
58553;SDS011;48119;53.218;6.576;2023-04-24T10:04:15;13.60;;;4.82;;
58553;SDS011;48119;53.218;6.576;2023-04-24T10:06:47;9.50;;;3.75;;
58553;SDS011;48119;53.218;6.576;2023-04-24T10:09:18;9.35;;;3.97;;
58553;SDS011;48119;53.218;6.576;2023-04-24T10:11:49;11.82;;;3.67;;
58553;SDS011;48119;53.218;6.576;2023-04-24T10:14:19;7.95;;;3.78;;
58553;SDS011;48119;53.218;6.576;2023-04-24T10:16:48;6.05;;;3.05;;
58553;SDS011;48119;53.218;6.576;2023-04-24T10:19:23;10.50;;;3.80;;
58553;SDS011;48119;53.218;6.576;2023-04-24T10:21:55;15.68;;;3.72;;
58553;SDS011;48119;53.218;6.576;2023-04-24T10:24:22;7.03;;;3.25;;
58553;SDS011;48119;53.218;6.576;2023-04-24T10:26:48;8.82;;;3.17;;
58553;SDS011;48119;53.218;6.576;2023-04-24T10:29:15;6.22;;;2.80;;
58553;SDS011;48119;53.218;6.576;2023-04-24T10:31:45;10.90;;;3.60;;
58553;SDS011;48119;53.218;6.576;2023-04-24T10:34:19;4.28;;;2.40;;
58553;SDS011;48119;53.218;6.576;2023-04-24T10:36:53;7.72;;;2.70;;
58553;SDS011;48119;53.218;6.576;2023-04-24T10:39:21;7.68;;;2.75;;
58553;SDS011;48119;53.218;6.576;2023-04-24T10:41:50;13.40;;;4.47;;
58553;SDS011;48119;53.218;6.576;2023-04-24T10:44:16;5.95;;;2.22;;
58553;SDS011;48119;53.218;6.576;2023-04-24T10:46:45;8.35;;;3.13;;
58553;SDS011;48119;53.218;6.576;2023-04-24T10:49:15;6.20;;;3.00;;
58553;SDS011;48119;53.218;6.576;2023-04-24T10:51:48;7.57;;;2.45;;
58553;SDS011;48119;53.218;6.576;2023-04-24T10:54:24;5.75;;;2.38;;
58553;SDS011;48119;53.218;6.576;2023-04-24T10:56:51;9.65;;;3.38;;
58553;SDS011;48119;53.218;6.576;2023-04-24T10:59:24;4.80;;;2.28;;
58553;SDS011;48119;53.218;6.576;2023-04-24T11:01:59;9.40;;;3.05;;
58553;SDS011;48119;53.218;6.576;2023-04-24T11:04:29;6.15;;;2.95;;
58553;SDS011;48119;53.218;6.576;2023-04-24T11:06:58;9.65;;;2.53;;
58553;SDS011;48119;53.218;6.576;2023-04-24T11:09:28;8.35;;;2.83;;
58553;SDS011;48119;53.218;6.576;2023-04-24T11:12:03;8.80;;;2.00;;
58553;SDS011;48119;53.218;6.576;2023-04-24T11:17:42;10.27;;;3.42;;
58553;SDS011;48119;53.218;6.576;2023-04-24T11:20:11;5.55;;;2.22;;
58553;SDS011;48119;53.218;6.576;2023-04-24T11:22:41;15.93;;;3.00;;
58553;SDS011;48119;53.218;6.576;2023-04-24T11:25:10;4.30;;;2.03;;
58553;SDS011;48119;53.218;6.576;2023-04-24T11:30:06;4.30;;;1.90;;
58553;SDS011;48119;53.218;6.576;2023-04-24T11:37:42;11.52;;;2.63;;
58553;SDS011;48119;53.218;6.576;2023-04-24T11:40:09;6.85;;;2.08;;
58553;SDS011;48119;53.218;6.576;2023-04-24T11:42:40;7.95;;;2.20;;
58553;SDS011;48119;53.218;6.576;2023-04-24T11:45:13;8.60;;;2.53;;
58553;SDS011;48119;53.218;6.576;2023-04-24T11:47:41;6.65;;;2.00;;
58553;SDS011;48119;53.218;6.576;2023-04-24T11:50:08;5.95;;;1.77;;
58553;SDS011;48119;53.218;6.576;2023-04-24T11:52:37;7.72;;;2.47;;
58553;SDS011;48119;53.218;6.576;2023-04-24T11:55:06;7.20;;;2.33;;
58553;SDS011;48119;53.218;6.576;2023-04-24T11:57:33;8.10;;;1.75;;
58553;SDS011;48119;53.218;6.576;2023-04-24T12:00:02;4.43;;;2.10;;
58553;SDS011;48119;53.218;6.576;2023-04-24T12:02:30;3.53;;;1.85;;
58553;SDS011;48119;53.218;6.576;2023-04-24T12:04:56;10.90;;;2.17;;
58553;SDS011;48119;53.218;6.576;2023-04-24T12:07:22;7.03;;;1.92;;
58553;SDS011;48119;53.218;6.576;2023-04-24T12:09:57;6.68;;;2.30;;
58553;SDS011;48119;53.218;6.576;2023-04-24T12:12:27;8.10;;;2.70;;
58553;SDS011;48119;53.218;6.576;2023-04-24T12:14:54;7.50;;;2.05;;
58553;SDS011;48119;53.218;6.576;2023-04-24T12:17:31;6.15;;;2.53;;
58553;SDS011;48119;53.218;6.576;2023-04-24T12:19:59;6.40;;;2.13;;
58553;SDS011;48119;53.218;6.576;2023-04-24T12:22:28;8.25;;;2.03;;
58553;SDS011;48119;53.218;6.576;2023-04-24T12:25:11;6.03;;;2.03;;
58553;SDS011;48119;53.218;6.576;2023-04-24T12:27:37;5.30;;;1.70;;
58553;SDS011;48119;53.218;6.576;2023-04-24T12:30:03;3.95;;;1.95;;
58553;SDS011;48119;53.218;6.576;2023-04-24T12:32:48;4.18;;;2.08;;
58553;SDS011;48119;53.218;6.576;2023-04-24T12:35:21;7.47;;;1.73;;
58553;SDS011;48119;53.218;6.576;2023-04-24T12:37:49;3.58;;;1.70;;
58553;SDS011;48119;53.218;6.576;2023-04-24T12:40:18;5.95;;;1.30;;
58553;SDS011;48119;53.218;6.576;2023-04-24T12:42:47;4.05;;;1.40;;
58553;SDS011;48119;53.218;6.576;2023-04-24T12:45:14;4.05;;;1.27;;
58553;SDS011;48119;53.218;6.576;2023-04-24T12:47:44;6.15;;;1.40;;
58553;SDS011;48119;53.218;6.576;2023-04-24T12:50:11;5.50;;;1.58;;
58553;SDS011;48119;53.218;6.576;2023-04-24T12:52:38;4.25;;;1.30;;
58553;SDS011;48119;53.218;6.576;2023-04-24T12:55:05;3.75;;;1.38;;
58553;SDS011;48119;53.218;6.576;2023-04-24T12:57:33;7.55;;;2.13;;
58553;SDS011;48119;53.218;6.576;2023-04-24T13:00:04;5.35;;;1.42;;
58553;SDS011;48119;53.218;6.576;2023-04-24T13:02:32;2.55;;;0.90;;
58553;SDS011;48119;53.218;6.576;2023-04-24T13:04:59;7.65;;;1.65;;
58553;SDS011;48119;53.218;6.576;2023-04-24T13:07:25;4.38;;;1.67;;
58553;SDS011;48119;53.218;6.576;2023-04-24T13:09:52;5.30;;;1.52;;
58553;SDS011;48119;53.218;6.576;2023-04-24T13:12:19;3.35;;;1.17;;
58553;SDS011;48119;53.218;6.576;2023-04-24T13:14:45;4.50;;;1.67;;
58553;SDS011;48119;53.218;6.576;2023-04-24T13:17:11;4.95;;;1.75;;
58553;SDS011;48119;53.218;6.576;2023-04-24T13:19:41;5.80;;;1.40;;
58553;SDS011;48119;53.218;6.576;2023-04-24T13:22:09;6.82;;;1.65;;
58553;SDS011;48119;53.218;6.576;2023-04-24T13:24:36;5.13;;;1.48;;
58553;SDS011;48119;53.218;6.576;2023-04-24T13:27:02;8.63;;;2.17;;
58553;SDS011;48119;53.218;6.576;2023-04-24T13:29:28;9.45;;;1.70;;
58553;SDS011;48119;53.218;6.576;2023-04-24T13:31:54;6.95;;;1.85;;
58553;SDS011;48119;53.218;6.576;2023-04-24T13:34:24;4.57;;;1.85;;
58553;SDS011;48119;53.218;6.576;2023-04-24T13:36:52;4.88;;;1.83;;
58553;SDS011;48119;53.218;6.576;2023-04-24T13:39:18;6.28;;;1.40;;
58553;SDS011;48119;53.218;6.576;2023-04-24T13:41:44;4.63;;;1.35;;
58553;SDS011;48119;53.218;6.576;2023-04-24T13:44:12;6.07;;;1.73;;
58553;SDS011;48119;53.218;6.576;2023-04-24T13:46:39;3.92;;;1.75;;
58553;SDS011;48119;53.218;6.576;2023-04-24T13:49:05;3.67;;;1.55;;
58553;SDS011;48119;53.218;6.576;2023-04-24T13:51:32;2.83;;;0.93;;
58553;SDS011;48119;53.218;6.576;2023-04-24T13:53:58;6.13;;;1.55;;
58553;SDS011;48119;53.218;6.576;2023-04-24T13:56:24;2.63;;;0.90;;
58553;SDS011;48119;53.218;6.576;2023-04-24T13:58:51;2.42;;;0.80;;
58553;SDS011;48119;53.218;6.576;2023-04-24T14:01:19;2.35;;;1.08;;
58553;SDS011;48119;53.218;6.576;2023-04-24T14:03:49;4.53;;;1.33;;
58553;SDS011;48119;53.218;6.576;2023-04-24T14:06:15;11.85;;;2.03;;
58553;SDS011;48119;53.218;6.576;2023-04-24T14:08:41;5.60;;;1.40;;
58553;SDS011;48119;53.218;6.576;2023-04-24T14:11:07;5.65;;;2.15;;
58553;SDS011;48119;53.218;6.576;2023-04-24T14:13:33;6.15;;;2.47;;
58553;SDS011;48119;53.218;6.576;2023-04-24T14:15:59;7.78;;;2.10;;
58553;SDS011;48119;53.218;6.576;2023-04-24T14:18:25;8.40;;;2.47;;
58553;SDS011;48119;53.218;6.576;2023-04-24T14:20:51;8.55;;;2.30;;
58553;SDS011;48119;53.218;6.576;2023-04-24T14:23:18;10.25;;;3.03;;
58553;SDS011;48119;53.218;6.576;2023-04-24T14:25:43;6.82;;;2.22;;
58553;SDS011;48119;53.218;6.576;2023-04-24T14:28:09;11.93;;;2.78;;
58553;SDS011;48119;53.218;6.576;2023-04-24T14:30:35;7.07;;;2.05;;
58553;SDS011;48119;53.218;6.576;2023-04-24T14:33:02;9.65;;;2.78;;
58553;SDS011;48119;53.218;6.576;2023-04-24T14:35:29;8.13;;;2.63;;
58553;SDS011;48119;53.218;6.576;2023-04-24T14:37:56;9.57;;;3.08;;
58553;SDS011;48119;53.218;6.576;2023-04-24T14:40:22;7.40;;;2.30;;
58553;SDS011;48119;53.218;6.576;2023-04-24T14:42:48;11.30;;;2.78;;
58553;SDS011;48119;53.218;6.576;2023-04-24T14:45:16;6.75;;;2.53;;
58553;SDS011;48119;53.218;6.576;2023-04-24T14:47:42;8.30;;;2.50;;
58553;SDS011;48119;53.218;6.576;2023-04-24T14:50:08;5.63;;;2.30;;
58553;SDS011;48119;53.218;6.576;2023-04-24T14:52:37;5.78;;;2.17;;
58553;SDS011;48119;53.218;6.576;2023-04-24T14:55:03;6.82;;;2.08;;
58553;SDS011;48119;53.218;6.576;2023-04-24T14:57:32;5.43;;;1.80;;
58553;SDS011;48119;53.218;6.576;2023-04-24T15:00:01;6.70;;;1.65;;
58553;SDS011;48119;53.218;6.576;2023-04-24T15:02:31;9.45;;;3.00;;
58553;SDS011;48119;53.218;6.576;2023-04-24T15:04:59;8.55;;;2.47;;